createdAt,value
2018-06-29T00:02:07.301Z,69.61
2018-06-29T00:04:35.627Z,69.90
2018-06-29T00:07:03.977Z,70.03
2018-06-29T00:09:32.302Z,70.68
2018-06-29T00:12:00.641Z,70.84
2018-06-29T00:14:28.992Z,70.75
2018-06-29T00:16:58.461Z,70.71
2018-06-29T00:19:26.833Z,71.39
2018-06-29T00:21:56.789Z,71.59
2018-06-29T00:24:26.403Z,72.25
2018-06-29T00:26:55.949Z,71.95
2018-06-29T00:29:25.301Z,71.26
2018-06-29T00:31:53.630Z,71.89
2018-06-29T00:34:21.968Z,72.47
2018-06-29T00:36:50.296Z,72.39
2018-06-29T00:39:18.620Z,72.74
2018-06-29T00:41:48.133Z,72.85
2018-06-29T00:44:16.478Z,71.99
2018-06-29T00:46:44.808Z,72.70
2018-06-29T00:49:14.453Z,72.83
2018-06-29T00:51:42.816Z,72.28
2018-06-29T00:54:13.281Z,72.68
2018-06-29T00:56:43.397Z,72.40
2018-06-29T00:59:12.624Z,73.45
2018-06-29T01:01:43.117Z,72.50
2018-06-29T01:04:12.675Z,73.25
2018-06-29T01:06:43.027Z,73.78
2018-06-29T01:09:13.636Z,73.57
2018-06-29T01:11:43.026Z,72.90
2018-06-29T01:14:13.060Z,73.06
2018-06-29T01:16:42.415Z,73.17
2018-06-29T01:19:14.076Z,72.79
2018-06-29T01:21:44.006Z,72.87
2018-06-29T01:24:14.707Z,73.03
2018-06-29T01:26:44.892Z,73.70
2018-06-29T01:29:15.268Z,73.42
2018-06-29T01:31:44.657Z,73.76
2018-06-29T01:34:14.607Z,73.28
2018-06-29T01:36:44.609Z,73.29
2018-06-29T01:39:14.748Z,73.37
2018-06-29T01:41:44.918Z,73.30
2018-06-29T01:44:15.263Z,73.25
2018-06-29T01:46:45.889Z,73.59
2018-06-29T01:49:15.351Z,73.08
2018-06-29T01:51:44.689Z,72.90
2018-06-29T01:54:14.654Z,72.35
2018-06-29T01:56:45.037Z,72.82
2018-06-29T01:59:14.475Z,72.61
2018-06-29T02:01:42.854Z,72.66
2018-06-29T02:04:13.633Z,72.40
2018-06-29T02:06:43.062Z,73.08
2018-06-29T02:09:12.204Z,73.52
2018-06-29T02:11:42.533Z,72.36
2018-06-29T02:14:10.872Z,73.47
2018-06-29T02:16:39.287Z,73.42
2018-06-29T02:19:07.630Z,73.69
2018-06-29T02:21:35.957Z,73.95
2018-06-29T02:24:04.324Z,74.79
2018-06-29T02:26:32.662Z,73.46
2018-06-29T02:29:00.994Z,72.82
2018-06-29T02:31:29.346Z,73.17
2018-06-29T02:33:57.685Z,72.71
2018-06-29T02:36:26.082Z,73.88
2018-06-29T02:38:54.421Z,73.57
2018-06-29T02:41:22.769Z,73.98
2018-06-29T02:43:51.178Z,73.59
2018-06-29T02:46:19.518Z,73.71
2018-06-29T02:48:47.891Z,74.30
2018-06-29T02:51:16.678Z,73.22
2018-06-29T02:53:45.012Z,73.65
2018-06-29T02:56:14.433Z,73.68
2018-06-29T02:58:42.768Z,74.01
2018-06-29T03:01:12.934Z,73.78
2018-06-29T03:03:43.858Z,73.64
2018-06-29T03:06:13.633Z,73.70
2018-06-29T03:08:43.454Z,74.01
2018-06-29T03:11:11.893Z,72.98
2018-06-29T03:13:41.117Z,73.44
2018-06-29T03:16:10.374Z,73.57
2018-06-29T03:18:38.778Z,73.87
2018-06-29T03:21:07.157Z,73.33
2018-06-29T03:23:35.490Z,73.55
2018-06-29T03:26:03.913Z,73.30
2018-06-29T03:28:32.318Z,74.59
2018-06-29T03:31:00.653Z,74.08
2018-06-29T03:33:28.989Z,73.86
2018-06-29T03:35:57.323Z,74.14
2018-06-29T03:38:25.673Z,73.33
2018-06-29T03:40:54.007Z,73.44
2018-06-29T03:43:22.349Z,73.19
2018-06-29T03:45:50.705Z,73.08
2018-06-29T03:48:19.030Z,73.06
2018-06-29T03:50:47.409Z,73.99
2018-06-29T03:53:15.746Z,72.76
2018-06-29T03:55:45.213Z,72.91
2018-06-29T03:58:14.696Z,73.16
2018-06-29T04:00:45.105Z,73.40
2018-06-29T04:03:14.383Z,73.62
2018-06-29T04:05:42.827Z,73.29
2018-06-29T04:08:13.301Z,72.41
2018-06-29T04:10:44.116Z,72.76
2018-06-29T04:13:13.473Z,72.65
2018-06-29T04:15:42.913Z,73.54
2018-06-29T04:18:13.065Z,72.78
2018-06-29T04:20:43.504Z,73.33
2018-06-29T04:23:13.953Z,73.38
2018-06-29T04:25:44.070Z,73.23
2018-06-29T04:28:14.033Z,71.68
2018-06-29T04:30:43.229Z,72.09
2018-06-29T04:33:13.329Z,72.44
2018-06-29T04:35:43.555Z,72.79
2018-06-29T04:38:13.088Z,71.99
2018-06-29T04:40:42.609Z,72.05
2018-06-29T04:43:10.966Z,70.92
2018-06-29T04:45:39.566Z,70.22
2018-06-29T04:48:07.901Z,70.60
2018-06-29T04:50:36.250Z,69.64
2018-06-29T04:53:04.662Z,68.20
2018-06-29T04:55:33.230Z,67.46
2018-06-29T04:58:01.614Z,68.45
2018-06-29T05:00:29.956Z,66.62
2018-06-29T05:02:58.300Z,66.22
2018-06-29T05:05:27.199Z,65.24
2018-06-29T05:07:55.598Z,65.79
2018-06-29T05:10:24.044Z,65.59
2018-06-29T05:12:52.613Z,65.88
2018-06-29T05:15:20.961Z,65.67
2018-06-29T05:17:49.328Z,65.85
2018-06-29T05:20:17.687Z,66.29
2018-06-29T05:22:46.031Z,65.73
2018-06-29T05:25:14.835Z,66.98
2018-06-29T05:27:44.553Z,64.97
2018-06-29T05:30:14.244Z,64.26
2018-06-29T05:32:43.113Z,65.57
2018-06-29T05:35:13.610Z,63.92
2018-06-29T05:37:42.994Z,64.20
2018-06-29T05:40:13.308Z,64.12
2018-06-29T05:42:43.207Z,62.42
2018-06-29T05:45:11.680Z,62.55
2018-06-29T05:47:40.389Z,62.31
2018-06-29T05:50:08.795Z,61.12
2018-06-29T05:52:37.141Z,62.71
2018-06-29T05:55:06.300Z,61.78
2018-06-29T05:57:34.707Z,61.17
2018-06-29T06:00:03.077Z,60.47
2018-06-29T06:02:31.412Z,60.90
2018-06-29T06:04:59.792Z,59.36
2018-06-29T06:07:28.124Z,60.06
2018-06-29T06:09:56.445Z,59.51
2018-06-29T06:12:25.570Z,59.38
2018-06-29T06:14:54.028Z,58.24
2018-06-29T06:17:22.367Z,58.70
2018-06-29T06:20:02.187Z,58.09
2018-06-29T06:22:30.547Z,58.98
2018-06-29T06:24:59.004Z,59.06
2018-06-29T06:27:27.618Z,58.64
2018-06-29T06:29:56.206Z,58.67
2018-06-29T06:32:24.813Z,57.82
2018-06-29T06:34:53.140Z,57.61
2018-06-29T06:37:21.481Z,57.17
2018-06-29T06:39:49.812Z,57.14
2018-06-29T06:42:18.157Z,56.68
2018-06-29T06:44:46.679Z,56.35
2018-06-29T06:47:15.270Z,56.65
2018-06-29T06:49:44.773Z,56.65
2018-06-29T06:52:13.765Z,56.09
2018-06-29T06:54:43.362Z,55.87
2018-06-29T06:57:13.181Z,55.40
2018-06-29T06:59:43.639Z,55.38
2018-06-29T07:02:13.318Z,54.75
2018-06-29T07:04:41.735Z,54.12
2018-06-29T07:07:10.493Z,54.52
2018-06-29T07:09:39.424Z,54.26
2018-06-29T07:12:08.544Z,53.64
2018-06-29T07:14:37.011Z,53.04
2018-06-29T07:17:05.511Z,52.91
2018-06-29T07:19:33.867Z,53.10
2018-06-29T07:22:02.228Z,51.38
2018-06-29T07:24:30.695Z,50.98
2018-06-29T07:26:59.038Z,51.94
2018-06-29T07:29:28.610Z,52.08
2018-06-29T07:31:56.983Z,51.03
2018-06-29T07:34:25.478Z,51.19
2018-06-29T07:36:53.860Z,50.99
2018-06-29T07:39:22.214Z,50.27
2018-06-29T07:41:50.552Z,50.94
2018-06-29T07:44:19.030Z,49.41
2018-06-29T07:46:47.429Z,50.18
2018-06-29T07:49:15.965Z,49.80
2018-06-29T07:51:45.413Z,48.94
2018-06-29T07:54:14.842Z,49.42
2018-06-29T07:56:44.288Z,48.99
2018-06-29T07:59:14.243Z,48.62
2018-06-29T08:01:43.305Z,48.45
2018-06-29T08:04:14.061Z,48.11
2018-06-29T08:06:43.959Z,49.93
2018-06-29T08:09:12.679Z,48.90
2018-06-29T08:11:43.368Z,49.54
2018-06-29T08:14:11.753Z,47.25
2018-06-29T08:16:40.473Z,47.70
2018-06-29T08:19:08.894Z,46.53
2018-06-29T08:21:37.226Z,47.12
2018-06-29T08:24:05.739Z,47.90
2018-06-29T08:26:34.219Z,47.18
2018-06-29T08:29:02.726Z,45.44
2018-06-29T08:31:31.073Z,45.75
2018-06-29T08:33:59.441Z,46.42
2018-06-29T08:36:27.791Z,45.27
2018-06-29T08:38:56.117Z,45.84
2018-06-29T08:41:24.453Z,45.84
2018-06-29T08:43:52.835Z,44.70
2018-06-29T08:46:21.173Z,43.66
2018-06-29T08:48:49.684Z,43.62
2018-06-29T08:51:18.182Z,43.74
2018-06-29T08:53:46.554Z,43.86
2018-06-29T08:56:14.943Z,45.35
2018-06-29T08:58:44.326Z,44.57
2018-06-29T09:01:12.692Z,43.30
2018-06-29T09:03:43.106Z,43.51
2018-06-29T09:06:13.372Z,44.89
2018-06-29T09:08:41.735Z,42.68
2018-06-29T09:11:10.487Z,42.38
2018-06-29T09:13:39.838Z,42.51
2018-06-29T09:16:08.270Z,41.50
2018-06-29T09:18:36.670Z,42.39
2018-06-29T09:21:05.059Z,41.59
2018-06-29T09:23:33.401Z,41.34
2018-06-29T09:26:01.768Z,40.31
2018-06-29T09:28:30.135Z,39.92
2018-06-29T09:30:58.506Z,41.03
2018-06-29T09:33:26.915Z,39.95
2018-06-29T09:35:58.234Z,39.47
2018-06-29T09:38:26.740Z,38.99
2018-06-29T09:40:55.098Z,38.77
2018-06-29T09:43:23.459Z,38.23
2018-06-29T09:45:52.818Z,38.23
2018-06-29T09:48:21.265Z,39.43
2018-06-29T09:50:49.625Z,39.17
2018-06-29T09:53:17.958Z,38.90
2018-06-29T09:55:46.385Z,38.87
2018-06-29T09:58:14.710Z,37.13
2018-06-29T10:00:44.200Z,37.68
2018-06-29T10:03:13.570Z,36.34
2018-06-29T10:05:44.111Z,36.12
2018-06-29T10:08:13.566Z,37.23
2018-06-29T10:10:44.039Z,36.12
2018-06-29T10:13:13.601Z,35.69
2018-06-29T10:15:43.228Z,34.54
2018-06-29T10:18:12.731Z,34.39
2018-06-29T10:20:42.630Z,35.51
2018-06-29T10:23:13.254Z,35.95
2018-06-29T10:25:42.822Z,36.14
2018-06-29T10:28:11.339Z,37.68
2018-06-29T10:30:39.777Z,37.55
2018-06-29T10:33:08.107Z,38.43
2018-06-29T10:35:36.614Z,36.48
2018-06-29T10:38:05.220Z,36.66
2018-06-29T10:40:33.640Z,36.57
2018-06-29T10:43:02.118Z,35.04
2018-06-29T10:45:30.676Z,32.88
2018-06-29T10:47:59.123Z,32.90
2018-06-29T10:50:27.640Z,30.74
2018-06-29T10:52:56.316Z,32.49
2018-06-29T10:55:24.653Z,34.81
2018-06-29T10:57:53.069Z,32.08
2018-06-29T11:00:21.429Z,32.85
2018-06-29T11:02:49.950Z,32.62
2018-06-29T11:05:18.281Z,32.30
2018-06-29T11:07:46.838Z,32.25
2018-06-29T11:10:15.229Z,31.24
2018-06-29T11:12:44.658Z,31.80
2018-06-29T11:15:14.242Z,31.63
2018-06-29T11:17:43.397Z,31.33
2018-06-29T11:20:14.410Z,30.92
2018-06-29T11:22:43.386Z,30.49
2018-06-29T11:25:14.245Z,32.11
2018-06-29T11:27:43.360Z,32.25
2018-06-29T11:30:12.515Z,32.07
2018-06-29T11:32:43.343Z,32.32
2018-06-29T11:35:11.896Z,32.97
2018-06-29T11:37:40.673Z,34.61
2018-06-29T11:40:09.683Z,33.53
2018-06-29T11:42:38.039Z,33.08
2018-06-29T11:45:06.461Z,31.31
2018-06-29T11:47:34.867Z,33.62
2018-06-29T11:50:03.241Z,31.73
2018-06-29T11:52:31.601Z,32.24
2018-06-29T11:54:59.951Z,33.77
2018-06-29T11:57:28.400Z,33.77
2018-06-29T11:59:56.845Z,32.68
2018-06-29T12:02:25.252Z,30.81
2018-06-29T12:04:53.706Z,31.37
2018-06-29T12:07:22.204Z,31.33
2018-06-29T12:09:50.563Z,31.27
2018-06-29T12:12:18.947Z,31.36
2018-06-29T12:14:47.325Z,32.63
2018-06-29T12:17:15.713Z,31.40
2018-06-29T12:19:45.046Z,29.83
2018-06-29T12:22:14.322Z,29.99
2018-06-29T12:24:43.903Z,28.82
2018-06-29T12:27:13.306Z,30.68
2018-06-29T12:29:42.721Z,31.91
2018-06-29T12:32:13.114Z,31.14
2018-06-29T12:34:44.126Z,29.33
2018-06-29T12:37:13.014Z,31.80
2018-06-29T12:39:43.399Z,31.74
2018-06-29T12:42:13.229Z,31.99
2018-06-29T12:44:43.724Z,31.05
2018-06-29T12:47:14.790Z,31.76
2018-06-29T12:49:44.433Z,31.58
2018-06-29T12:52:13.947Z,31.57
2018-06-29T12:54:43.174Z,31.05
2018-06-29T12:57:14.017Z,29.89
2018-06-29T12:59:43.267Z,30.64
2018-06-29T13:02:12.925Z,29.31
2018-06-29T13:04:42.946Z,29.42
2018-06-29T13:07:12.917Z,29.94
2018-06-29T13:09:43.517Z,29.02
2018-06-29T13:12:13.121Z,31.04
2018-06-29T13:14:42.562Z,31.15
2018-06-29T13:17:12.967Z,30.93
2018-06-29T13:19:42.944Z,30.70
2018-06-29T13:22:12.769Z,30.08
2018-06-29T13:24:42.723Z,29.25
2018-06-29T13:27:13.342Z,30.40
2018-06-29T13:29:44.313Z,29.46
2018-06-29T13:32:12.650Z,29.54
2018-06-29T13:34:43.018Z,29.40
2018-06-29T13:37:13.164Z,29.73
2018-06-29T13:39:43.241Z,30.17
2018-06-29T13:42:13.231Z,30.29
2018-06-29T13:44:44.192Z,28.27
2018-06-29T13:47:13.146Z,29.59
2018-06-29T13:49:43.513Z,31.01
2018-06-29T13:52:13.339Z,29.85
2018-06-29T13:54:43.540Z,30.32
2018-06-29T13:57:12.662Z,29.19
2018-06-29T13:59:41.057Z,29.79
2018-06-29T14:02:10.691Z,27.98
2018-06-29T14:04:39.626Z,28.11
2018-06-29T14:07:08.062Z,27.35
2018-06-29T14:09:36.465Z,28.25
2018-06-29T14:12:04.898Z,28.29
2018-06-29T14:14:34.259Z,26.50
2018-06-29T14:17:02.610Z,28.15
2018-06-29T14:19:30.970Z,26.89
2018-06-29T14:21:59.353Z,27.20
2018-06-29T14:24:27.696Z,28.61
2018-06-29T14:26:56.030Z,29.13
2018-06-29T14:29:24.374Z,27.78
2018-06-29T14:31:52.715Z,28.19
2018-06-29T14:34:21.056Z,27.51
2018-06-29T14:36:49.394Z,28.53
2018-06-29T14:39:17.767Z,28.54
2018-06-29T14:41:46.249Z,29.60
2018-06-29T14:44:16.085Z,26.80
2018-06-29T14:46:45.875Z,27.18
2018-06-29T14:49:15.438Z,26.70
2018-06-29T14:51:44.288Z,26.21
2018-06-29T14:54:12.676Z,26.31
2018-06-29T14:56:41.906Z,29.30
2018-06-29T14:59:10.673Z,28.37
2018-06-29T15:01:39.171Z,28.62
2018-06-29T15:04:07.505Z,27.78
2018-06-29T15:06:35.842Z,28.27
2018-06-29T15:09:06.214Z,27.95
2018-06-29T15:11:34.545Z,29.39
2018-06-29T15:14:02.881Z,27.70
2018-06-29T15:16:31.237Z,26.60
2018-06-29T15:18:59.608Z,25.96
2018-06-29T15:21:27.954Z,24.22
2018-06-29T15:23:56.334Z,22.86
2018-06-29T15:29:04.377Z,24.64
2018-06-29T15:31:32.818Z,23.66
2018-06-29T15:34:01.146Z,24.40
2018-06-29T15:36:29.562Z,24.59
2018-06-29T15:38:57.998Z,25.63
2018-06-29T15:41:26.386Z,25.70
2018-06-29T15:43:54.736Z,26.70
2018-06-29T15:46:23.129Z,28.14
2018-06-29T15:48:51.497Z,28.99
2018-06-29T15:51:19.937Z,30.40
2018-06-29T15:53:48.272Z,32.67
2018-06-29T15:56:16.649Z,32.50
2018-06-29T15:58:44.989Z,36.66
2018-06-29T16:01:14.298Z,40.86
2018-06-29T16:03:43.327Z,42.36
2018-06-29T16:06:12.734Z,43.55
2018-06-29T16:08:43.061Z,46.20
2018-06-29T16:11:12.156Z,46.96
2018-06-29T16:13:42.469Z,48.53
2018-06-29T16:16:11.718Z,49.18
2018-06-29T16:18:40.817Z,49.41
2018-06-29T16:21:10.575Z,49.78
2018-06-29T16:23:39.724Z,50.86
2018-06-29T16:26:08.098Z,49.75
2018-06-29T16:28:36.497Z,50.35
2018-06-29T16:31:04.873Z,51.58
2018-06-29T16:33:33.330Z,50.50
2018-06-29T16:36:01.879Z,50.16
2018-06-29T16:38:30.203Z,51.98
2018-06-29T16:40:58.615Z,52.13
2018-06-29T16:43:26.986Z,52.43
2018-06-29T16:45:55.352Z,52.77
2018-06-29T16:48:23.686Z,54.11
2018-06-29T16:50:52.093Z,53.73
2018-06-29T16:53:20.489Z,54.56
2018-06-29T16:55:48.961Z,54.56
2018-06-29T16:58:17.339Z,56.37
2018-06-29T17:00:45.696Z,55.22
2018-06-29T17:03:14.674Z,55.40
2018-06-29T17:05:44.204Z,54.78
2018-06-29T17:08:13.237Z,54.88
2018-06-29T17:10:43.069Z,56.32
2018-06-29T17:13:13.629Z,55.64
2018-06-29T17:15:43.937Z,54.98
2018-06-29T17:18:14.317Z,55.69
2018-06-29T17:20:43.101Z,56.05
2018-06-29T17:23:12.992Z,55.91
2018-06-29T17:25:44.073Z,56.36
2018-06-29T17:28:13.654Z,56.53
2018-06-29T17:30:43.922Z,55.64
2018-06-29T17:33:14.710Z,55.25
2018-06-29T17:35:43.694Z,55.48
2018-06-29T17:38:13.362Z,56.23
2018-06-29T17:40:42.685Z,57.30
2018-06-29T17:43:13.147Z,57.89
2018-06-29T17:45:42.103Z,58.41
2018-06-29T17:48:10.826Z,57.91
2018-06-29T17:50:40.157Z,58.05
2018-06-29T17:53:08.516Z,58.35
2018-06-29T17:55:36.878Z,59.15
2018-06-29T17:58:05.305Z,59.58
2018-06-29T18:00:33.708Z,59.47
2018-06-29T18:03:02.117Z,60.63
2018-06-29T18:05:30.511Z,61.03
2018-06-29T18:07:58.809Z,61.06
2018-06-29T18:10:27.136Z,60.72
2018-06-29T18:12:55.544Z,60.90
2018-06-29T18:15:23.850Z,60.71
2018-06-29T18:17:52.216Z,60.73
2018-06-29T18:20:20.665Z,60.57
2018-06-29T18:22:49.058Z,60.24
2018-06-29T18:25:17.375Z,60.77
2018-06-29T18:27:45.711Z,62.01
2018-06-29T18:30:14.709Z,61.58
2018-06-29T18:32:44.141Z,62.70
2018-06-29T18:35:13.190Z,61.77
2018-06-29T18:37:42.363Z,62.25
2018-06-29T18:40:11.753Z,63.00
2018-06-29T18:42:41.034Z,62.88
2018-06-29T18:45:09.824Z,63.12
2018-06-29T18:47:38.154Z,63.76
2018-06-29T18:50:06.486Z,63.16
2018-06-29T18:52:34.805Z,64.22
2018-06-29T18:55:03.248Z,64.90
2018-06-29T18:57:31.581Z,64.92
2018-06-29T18:59:59.949Z,64.61
2018-06-29T19:02:28.433Z,64.34
2018-06-29T19:04:56.834Z,64.39
2018-06-29T19:07:25.233Z,65.38
2018-06-29T19:09:53.599Z,65.87
2018-06-29T19:12:22.054Z,65.82
2018-06-29T19:14:50.410Z,66.65
2018-06-29T19:17:18.862Z,66.53
2018-06-29T19:19:47.364Z,66.57
2018-06-29T19:22:16.062Z,66.79
2018-06-29T19:24:45.447Z,66.35
2018-06-29T19:27:15.046Z,66.52
2018-06-29T19:29:45.050Z,66.72
2018-06-29T19:32:14.896Z,66.91
2018-06-29T19:34:44.983Z,67.71
2018-06-29T19:37:14.691Z,67.57
2018-06-29T19:39:44.640Z,67.95
2018-06-29T19:42:14.586Z,67.65
2018-06-29T19:44:44.308Z,67.89
2018-06-29T19:47:13.001Z,67.68
2018-06-29T19:49:41.914Z,68.39
2018-06-29T19:52:12.150Z,69.18
2018-06-29T19:54:42.933Z,68.75
2018-06-29T19:57:13.391Z,68.84
2018-06-29T19:59:44.489Z,69.10
2018-06-29T20:02:14.184Z,69.28
2018-06-29T20:04:44.274Z,70.51
2018-06-29T20:07:14.041Z,70.34
2018-06-29T20:09:44.988Z,71.14
2018-06-29T20:12:14.642Z,70.48
2018-06-29T20:14:46.682Z,69.94
2018-06-29T20:17:15.398Z,69.46
2018-06-29T20:19:44.811Z,69.42
2018-06-29T20:22:14.209Z,69.33
2018-06-29T20:24:44.073Z,70.67
2018-06-29T20:27:15.155Z,70.27
2018-06-29T20:29:44.847Z,69.50
2018-06-29T20:32:14.201Z,70.22
2018-06-29T20:34:42.909Z,69.26
2018-06-29T20:37:12.780Z,69.60
2018-06-29T20:39:43.304Z,70.62
2018-06-29T20:42:12.827Z,71.00
2018-06-29T20:44:43.598Z,70.25
2018-06-29T20:47:14.765Z,70.39
2018-06-29T20:49:44.702Z,71.11
2018-06-29T20:52:14.125Z,70.83
2018-06-29T20:54:42.761Z,71.01
2018-06-29T20:57:13.082Z,71.68
2018-06-29T20:59:43.313Z,71.90
2018-06-29T21:02:12.705Z,72.42
2018-06-29T21:04:43.229Z,71.39
2018-06-29T21:07:11.866Z,72.45
2018-06-29T21:09:41.803Z,72.56
2018-06-29T21:12:10.877Z,72.87
2018-06-29T21:14:40.012Z,73.49
2018-06-29T21:17:08.352Z,73.62
2018-06-29T21:19:36.726Z,73.45
2018-06-29T21:22:05.114Z,72.38
2018-06-29T21:24:33.513Z,71.46
2018-06-29T21:27:02.710Z,70.97
2018-06-29T21:29:31.068Z,71.72
2018-06-29T21:31:59.446Z,70.07
2018-06-29T21:34:27.773Z,70.15
2018-06-29T21:36:56.154Z,70.48
2018-06-29T21:39:25.601Z,69.61
2018-06-29T21:41:53.978Z,69.86
2018-06-29T21:44:22.474Z,70.50
2018-06-29T21:46:50.913Z,69.96
2018-06-29T21:49:19.266Z,70.22
2018-06-29T21:51:47.630Z,70.25
2018-06-29T21:54:16.174Z,69.79
2018-06-29T21:56:45.469Z,69.91
2018-06-29T21:59:14.829Z,70.76
2018-06-29T22:01:44.530Z,70.56
2018-06-29T22:04:13.965Z,70.78
2018-06-29T22:06:44.361Z,71.39
2018-06-29T22:09:14.014Z,72.76
2018-06-29T22:11:44.603Z,70.71
2018-06-29T22:14:14.198Z,71.79
2018-06-29T22:16:43.216Z,72.33
2018-06-29T22:19:13.330Z,72.23
2018-06-29T22:21:41.650Z,71.65
2018-06-29T22:24:10.026Z,71.85
2018-06-29T22:26:38.388Z,72.18
2018-06-29T22:29:06.738Z,73.09
2018-06-29T22:31:35.102Z,72.28
2018-06-29T22:34:03.453Z,71.98
2018-06-29T22:36:31.834Z,73.49
2018-06-29T22:39:00.173Z,73.31
2018-06-29T22:41:28.550Z,73.44
2018-06-29T22:43:56.885Z,73.18
2018-06-29T22:46:25.208Z,73.18
2018-06-29T22:48:53.647Z,73.30
2018-06-29T22:51:22.077Z,72.99
2018-06-29T22:53:50.408Z,72.37
2018-06-29T22:56:18.781Z,72.84
2018-06-29T22:58:47.117Z,72.77
2018-06-29T23:01:15.534Z,74.13
2018-06-29T23:03:50.406Z,74.15
2018-06-29T23:06:18.738Z,73.29
2018-06-29T23:08:47.121Z,74.29
2018-06-29T23:11:15.476Z,73.85
2018-06-29T23:13:44.326Z,74.31
2018-06-29T23:16:13.371Z,74.12
2018-06-29T23:18:41.742Z,74.96
2018-06-29T23:21:13.449Z,75.14
2018-06-29T23:23:43.466Z,74.52
2018-06-29T23:26:14.074Z,74.34
2018-06-29T23:28:43.927Z,74.85
2018-06-29T23:31:13.525Z,75.51
2018-06-29T23:33:44.153Z,74.92
2018-06-29T23:36:14.834Z,75.08
2018-06-29T23:38:43.665Z,74.38
2018-06-29T23:41:13.421Z,74.86
2018-06-29T23:43:44.065Z,75.38
2018-06-29T23:46:14.272Z,75.93
2018-06-29T23:48:43.325Z,75.86
2018-06-29T23:51:13.433Z,75.40
2018-06-29T23:53:43.846Z,75.19
2018-06-29T23:56:13.175Z,74.72
2018-06-29T23:58:44.028Z,74.86
